KNKX/NKX METAR and TAF weather

Enter ICAO airport designator
Station Type Date Time Source
KNKX METAR 2022/01/29 12:55 UTC NOAA

KNKX 291255Z 08004KT 10SM CLR 06/M06 A3010 RMK AO2 SLP191 T00611056 $


Station Type Date Time Source
KNKX Decoded METAR 2022/01/29 12:55 UTC NOAA

MCAS MIRAMAR, CA, United States (KNKX) 32-52N 117-09W 146M
Jan 29, 2022 - 07:55 AM EST / 2022.01.29 1255 UTC
Wind: from the E (080 degrees) at 5 MPH (4 KT):0
Visibility: 10 mile(s):0
Sky conditions: clear
Temperature: 43.0 F (6.1 C)
Dew Point: 21.9 F (-5.6 C)
Relative Humidity: 42%
Pressure (altimeter): 30.1 in. Hg (1019 hPa)
ob: KNKX 291255Z 08004KT 10SM CLR 06/M06 A3010 RMK AO2 SLP191 T00611056
cycle: 13

Station Type Date Time Source
KNKX TAF 2022/01/29 09:17 UTC NOAA

TAF KNKX 2909/3009 08008KT 9999 SKC QNH3011INS
BECMG 2915/2917 VRB05KT 9999 SCT120 522409 523304 QNH3010INS
FM292030 29007KT 9999 SCT120 621208 522409 523304 QNH3005INS
BECMG 3000/3002 VRB05KT 9999 FEW120 621208 522409 523304 QNH3005INS T07/2913Z T21/2921Z

Example: see airport list